Terminal Aerodrome Forecast
Issued by NWS Missoula, MT

Home | Current Version | Previous Version | Text Only | Print | Product List | Glossary On
Versions: 1 2 3 4 5 6 7 8 9 10 11 12 13 14 15 16
000
FTUS45 KMSO 221721
TAFBTM
TAF
KBTM 221721Z 2218/2318 VRB03KT P6SM SKC
     FM222100 24008G15KT P6SM SCT120
     FM230000 24005KT P6SM BKN120=

USA.gov is the U.S. government's official web portal to all federal, state and local government web resources and services.